Strona główna
METAR-TAF:

METAR-TAF

Lotnisko :

Indianapolis, Indiana, Stany Zjednoczone

Szerokość geograficzna: 40-01-50N, Długość geograficzna: 086-15-05W, wysokość: 281 m

Aktualna obserwacja pogody

Raport powstał 12 minut temu, godzina 09:15 UTC
Wiatr 6 kt od południowy zachód
Temperatura 24°C
Wilgotność 100%
Ciśnienie 1015 hPa
Widzialność: 16.1 km
bezchmurnie

METAR: KTYQ 200915Z AUTO 23006KT 10SM CLR 24/24 A2997 RMK AO2 T02380238

czas: 03:27 (09:27 UTC)


TAF: brakujący

Obserwacja i prognoza pogody dla ponad 4000 lotnisk (raport METAR i TAF).

Dostępne stacje oznaczono żółtymi i czerwonymi punktami na mapie.

Najedź kursorem aby zobaczyć nazwę stacji.

Kliknij aby zobaczyć obserwacje i prognozy pogody.

Aby zmienić mapę: kliknij na zielony przycisk z czarnym krzyżykiem, aby powiększyć; na zielony przycisk z myślnikiem, aby pomniejszyć; na zielone strzałki, aby przejść do map sąsiednich.


METAR-TAF: